sensor_id;sensor_type;location;lat;lon;timestamp;P1;durP1;ratioP1;P2;durP2;ratioP2
12171;SDS011;6149;52.418;13.668;2024-01-30T00:01:58;11.67;;;6.70;;
12171;SDS011;6149;52.418;13.668;2024-01-30T00:04:24;9.97;;;6.53;;
12171;SDS011;6149;52.418;13.668;2024-01-30T00:06:51;9.77;;;5.87;;
12171;SDS011;6149;52.418;13.668;2024-01-30T00:09:18;10.07;;;6.20;;
12171;SDS011;6149;52.418;13.668;2024-01-30T00:11:45;8.67;;;6.43;;
12171;SDS011;6149;52.418;13.668;2024-01-30T00:14:15;11.00;;;6.23;;
12171;SDS011;6149;52.418;13.668;2024-01-30T00:16:41;13.07;;;6.03;;
12171;SDS011;6149;52.418;13.668;2024-01-30T00:19:09;7.77;;;5.33;;
12171;SDS011;6149;52.418;13.668;2024-01-30T00:21:36;11.27;;;6.10;;
12171;SDS011;6149;52.418;13.668;2024-01-30T00:24:03;10.00;;;6.00;;
12171;SDS011;6149;52.418;13.668;2024-01-30T00:26:30;13.50;;;6.80;;
12171;SDS011;6149;52.418;13.668;2024-01-30T00:28:56;10.47;;;6.17;;
12171;SDS011;6149;52.418;13.668;2024-01-30T00:31:23;11.67;;;6.20;;
12171;SDS011;6149;52.418;13.668;2024-01-30T00:33:50;8.70;;;6.00;;
12171;SDS011;6149;52.418;13.668;2024-01-30T00:36:18;9.27;;;5.90;;
12171;SDS011;6149;52.418;13.668;2024-01-30T00:38:45;9.73;;;5.83;;
12171;SDS011;6149;52.418;13.668;2024-01-30T00:41:11;9.10;;;5.90;;
12171;SDS011;6149;52.418;13.668;2024-01-30T00:43:38;10.50;;;6.73;;
12171;SDS011;6149;52.418;13.668;2024-01-30T00:46:04;9.77;;;5.67;;
12171;SDS011;6149;52.418;13.668;2024-01-30T00:48:31;9.47;;;6.30;;
12171;SDS011;6149;52.418;13.668;2024-01-30T00:50:57;10.00;;;6.00;;
12171;SDS011;6149;52.418;13.668;2024-01-30T00:53:25;9.37;;;6.13;;
12171;SDS011;6149;52.418;13.668;2024-01-30T00:55:52;10.50;;;6.03;;
12171;SDS011;6149;52.418;13.668;2024-01-30T00:58:19;10.37;;;6.40;;
12171;SDS011;6149;52.418;13.668;2024-01-30T01:00:45;10.27;;;5.57;;
12171;SDS011;6149;52.418;13.668;2024-01-30T01:03:12;9.67;;;5.90;;
12171;SDS011;6149;52.418;13.668;2024-01-30T01:05:39;13.57;;;6.53;;
12171;SDS011;6149;52.418;13.668;2024-01-30T01:08:06;8.83;;;5.93;;
12171;SDS011;6149;52.418;13.668;2024-01-30T01:10:35;12.67;;;6.33;;
12171;SDS011;6149;52.418;13.668;2024-01-30T01:13:01;10.00;;;6.33;;
12171;SDS011;6149;52.418;13.668;2024-01-30T01:15:28;9.97;;;6.53;;
12171;SDS011;6149;52.418;13.668;2024-01-30T01:17:55;9.27;;;5.67;;
12171;SDS011;6149;52.418;13.668;2024-01-30T01:20:21;11.73;;;6.20;;
12171;SDS011;6149;52.418;13.668;2024-01-30T01:22:48;11.17;;;6.33;;
12171;SDS011;6149;52.418;13.668;2024-01-30T01:25:14;11.10;;;6.47;;
12171;SDS011;6149;52.418;13.668;2024-01-30T01:27:42;10.23;;;6.40;;
12171;SDS011;6149;52.418;13.668;2024-01-30T01:30:16;9.53;;;6.50;;
12171;SDS011;6149;52.418;13.668;2024-01-30T01:32:46;11.33;;;6.13;;
12171;SDS011;6149;52.418;13.668;2024-01-30T01:35:15;10.57;;;6.57;;
12171;SDS011;6149;52.418;13.668;2024-01-30T01:37:42;11.50;;;6.60;;
12171;SDS011;6149;52.418;13.668;2024-01-30T01:40:09;12.50;;;7.43;;
12171;SDS011;6149;52.418;13.668;2024-01-30T01:42:36;12.53;;;7.47;;
12171;SDS011;6149;52.418;13.668;2024-01-30T01:45:05;12.10;;;7.43;;
12171;SDS011;6149;52.418;13.668;2024-01-30T01:47:33;11.90;;;7.20;;
12171;SDS011;6149;52.418;13.668;2024-01-30T01:49:59;16.27;;;8.00;;
12171;SDS011;6149;52.418;13.668;2024-01-30T01:52:26;12.27;;;7.97;;
12171;SDS011;6149;52.418;13.668;2024-01-30T01:54:52;12.13;;;7.83;;
12171;SDS011;6149;52.418;13.668;2024-01-30T01:57:19;16.17;;;7.93;;
12171;SDS011;6149;52.418;13.668;2024-01-30T01:59:46;15.67;;;7.73;;
12171;SDS011;6149;52.418;13.668;2024-01-30T02:02:15;13.67;;;7.20;;
12171;SDS011;6149;52.418;13.668;2024-01-30T02:04:45;12.57;;;7.90;;
12171;SDS011;6149;52.418;13.668;2024-01-30T02:07:11;13.13;;;7.60;;
12171;SDS011;6149;52.418;13.668;2024-01-30T02:09:38;12.73;;;7.70;;
12171;SDS011;6149;52.418;13.668;2024-01-30T02:12:05;11.00;;;7.47;;
12171;SDS011;6149;52.418;13.668;2024-01-30T02:14:32;11.13;;;7.00;;
12171;SDS011;6149;52.418;13.668;2024-01-30T02:16:59;11.57;;;7.37;;
12171;SDS011;6149;52.418;13.668;2024-01-30T02:19:27;12.67;;;7.90;;
12171;SDS011;6149;52.418;13.668;2024-01-30T02:21:55;10.03;;;7.17;;
12171;SDS011;6149;52.418;13.668;2024-01-30T02:24:24;12.90;;;7.60;;
12171;SDS011;6149;52.418;13.668;2024-01-30T02:26:54;12.23;;;7.27;;
12171;SDS011;6149;52.418;13.668;2024-01-30T02:29:19;13.67;;;7.77;;
12171;SDS011;6149;52.418;13.668;2024-01-30T02:31:46;11.50;;;7.57;;
12171;SDS011;6149;52.418;13.668;2024-01-30T02:34:13;12.37;;;7.93;;
12171;SDS011;6149;52.418;13.668;2024-01-30T02:36:42;12.97;;;7.67;;
12171;SDS011;6149;52.418;13.668;2024-01-30T02:39:10;10.77;;;7.40;;
12171;SDS011;6149;52.418;13.668;2024-01-30T02:41:36;12.13;;;7.10;;
12171;SDS011;6149;52.418;13.668;2024-01-30T02:44:03;10.13;;;7.23;;
12171;SDS011;6149;52.418;13.668;2024-01-30T02:46:30;12.23;;;7.70;;
12171;SDS011;6149;52.418;13.668;2024-01-30T02:48:57;10.83;;;6.90;;
12171;SDS011;6149;52.418;13.668;2024-01-30T02:51:23;15.37;;;7.40;;
12171;SDS011;6149;52.418;13.668;2024-01-30T02:53:50;12.53;;;6.97;;
12171;SDS011;6149;52.418;13.668;2024-01-30T02:56:18;12.00;;;7.40;;
12171;SDS011;6149;52.418;13.668;2024-01-30T02:58:44;10.30;;;7.10;;
12171;SDS011;6149;52.418;13.668;2024-01-30T03:01:11;12.13;;;7.40;;
12171;SDS011;6149;52.418;13.668;2024-01-30T03:03:37;13.60;;;7.43;;
12171;SDS011;6149;52.418;13.668;2024-01-30T03:06:08;11.43;;;6.80;;
12171;SDS011;6149;52.418;13.668;2024-01-30T03:08:34;11.43;;;7.67;;
12171;SDS011;6149;52.418;13.668;2024-01-30T03:11:02;10.57;;;6.70;;
12171;SDS011;6149;52.418;13.668;2024-01-30T03:13:30;11.57;;;7.70;;
12171;SDS011;6149;52.418;13.668;2024-01-30T03:15:57;11.47;;;7.47;;
12171;SDS011;6149;52.418;13.668;2024-01-30T03:18:23;11.57;;;7.03;;
12171;SDS011;6149;52.418;13.668;2024-01-30T03:20:50;9.80;;;6.67;;
12171;SDS011;6149;52.418;13.668;2024-01-30T03:23:16;12.23;;;6.80;;
12171;SDS011;6149;52.418;13.668;2024-01-30T03:25:43;12.47;;;7.40;;
12171;SDS011;6149;52.418;13.668;2024-01-30T03:28:09;13.03;;;7.50;;
12171;SDS011;6149;52.418;13.668;2024-01-30T03:30:37;9.97;;;7.10;;
12171;SDS011;6149;52.418;13.668;2024-01-30T03:33:04;12.87;;;7.33;;
12171;SDS011;6149;52.418;13.668;2024-01-30T03:35:31;12.60;;;7.80;;
12171;SDS011;6149;52.418;13.668;2024-01-30T03:37:57;14.33;;;7.87;;
12171;SDS011;6149;52.418;13.668;2024-01-30T03:40:24;9.53;;;6.97;;
12171;SDS011;6149;52.418;13.668;2024-01-30T03:42:50;12.57;;;7.57;;
12171;SDS011;6149;52.418;13.668;2024-01-30T03:45:17;11.33;;;7.33;;
12171;SDS011;6149;52.418;13.668;2024-01-30T03:47:48;11.47;;;7.57;;
12171;SDS011;6149;52.418;13.668;2024-01-30T03:50:14;13.03;;;8.20;;
12171;SDS011;6149;52.418;13.668;2024-01-30T03:52:41;11.77;;;7.70;;
12171;SDS011;6149;52.418;13.668;2024-01-30T03:55:07;11.33;;;7.53;;
12171;SDS011;6149;52.418;13.668;2024-01-30T03:57:34;10.90;;;7.13;;
12171;SDS011;6149;52.418;13.668;2024-01-30T04:00:01;13.23;;;7.80;;
12171;SDS011;6149;52.418;13.668;2024-01-30T04:02:30;13.83;;;8.00;;
12171;SDS011;6149;52.418;13.668;2024-01-30T04:04:57;13.50;;;8.30;;
12171;SDS011;6149;52.418;13.668;2024-01-30T04:07:24;13.07;;;8.03;;
12171;SDS011;6149;52.418;13.668;2024-01-30T04:09:51;12.50;;;7.93;;
12171;SDS011;6149;52.418;13.668;2024-01-30T04:12:17;13.33;;;7.90;;
12171;SDS011;6149;52.418;13.668;2024-01-30T04:14:44;10.90;;;7.67;;
12171;SDS011;6149;52.418;13.668;2024-01-30T04:17:11;13.30;;;8.03;;
12171;SDS011;6149;52.418;13.668;2024-01-30T04:19:38;12.07;;;7.93;;
12171;SDS011;6149;52.418;13.668;2024-01-30T04:22:05;13.13;;;8.57;;
12171;SDS011;6149;52.418;13.668;2024-01-30T04:24:32;12.43;;;7.80;;
12171;SDS011;6149;52.418;13.668;2024-01-30T04:26:59;19.60;;;9.37;;
12171;SDS011;6149;52.418;13.668;2024-01-30T04:29:25;13.07;;;8.30;;
12171;SDS011;6149;52.418;13.668;2024-01-30T04:31:52;11.87;;;7.80;;
12171;SDS011;6149;52.418;13.668;2024-01-30T04:34:18;12.23;;;7.87;;
12171;SDS011;6149;52.418;13.668;2024-01-30T04:36:45;12.77;;;8.50;;
12171;SDS011;6149;52.418;13.668;2024-01-30T04:39:13;14.90;;;8.87;;
12171;SDS011;6149;52.418;13.668;2024-01-30T04:41:39;12.43;;;8.27;;
12171;SDS011;6149;52.418;13.668;2024-01-30T04:44:05;13.83;;;8.27;;
12171;SDS011;6149;52.418;13.668;2024-01-30T04:46:32;10.73;;;7.73;;
12171;SDS011;6149;52.418;13.668;2024-01-30T04:49:00;14.07;;;8.63;;
12171;SDS011;6149;52.418;13.668;2024-01-30T04:51:26;12.40;;;8.10;;
12171;SDS011;6149;52.418;13.668;2024-01-30T04:53:53;14.90;;;8.50;;
12171;SDS011;6149;52.418;13.668;2024-01-30T04:56:21;12.37;;;7.73;;
12171;SDS011;6149;52.418;13.668;2024-01-30T04:58:48;13.83;;;7.87;;
12171;SDS011;6149;52.418;13.668;2024-01-30T05:01:15;15.33;;;8.70;;
12171;SDS011;6149;52.418;13.668;2024-01-30T05:03:42;10.93;;;7.93;;
12171;SDS011;6149;52.418;13.668;2024-01-30T05:06:08;13.27;;;8.17;;
12171;SDS011;6149;52.418;13.668;2024-01-30T05:08:35;11.83;;;7.67;;
12171;SDS011;6149;52.418;13.668;2024-01-30T05:11:04;13.60;;;8.50;;
12171;SDS011;6149;52.418;13.668;2024-01-30T05:13:32;11.80;;;8.03;;
12171;SDS011;6149;52.418;13.668;2024-01-30T05:15:59;16.43;;;8.60;;
12171;SDS011;6149;52.418;13.668;2024-01-30T05:18:28;16.00;;;9.33;;
12171;SDS011;6149;52.418;13.668;2024-01-30T05:20:54;12.70;;;7.57;;
12171;SDS011;6149;52.418;13.668;2024-01-30T05:23:21;14.43;;;8.17;;
12171;SDS011;6149;52.418;13.668;2024-01-30T05:25:47;12.90;;;9.27;;
12171;SDS011;6149;52.418;13.668;2024-01-30T05:28:14;14.13;;;8.67;;
12171;SDS011;6149;52.418;13.668;2024-01-30T05:30:42;16.33;;;9.07;;
12171;SDS011;6149;52.418;13.668;2024-01-30T05:33:08;11.63;;;8.37;;
12171;SDS011;6149;52.418;13.668;2024-01-30T05:35:37;17.23;;;8.93;;
12171;SDS011;6149;52.418;13.668;2024-01-30T05:38:03;11.87;;;7.53;;
12171;SDS011;6149;52.418;13.668;2024-01-30T05:40:30;12.57;;;8.23;;
12171;SDS011;6149;52.418;13.668;2024-01-30T05:42:57;19.90;;;11.40;;
12171;SDS011;6149;52.418;13.668;2024-01-30T05:45:25;19.20;;;11.73;;
12171;SDS011;6149;52.418;13.668;2024-01-30T05:47:54;16.40;;;11.33;;
12171;SDS011;6149;52.418;13.668;2024-01-30T05:50:20;16.90;;;9.80;;
12171;SDS011;6149;52.418;13.668;2024-01-30T05:52:48;16.67;;;10.00;;
12171;SDS011;6149;52.418;13.668;2024-01-30T05:55:14;17.53;;;10.07;;
12171;SDS011;6149;52.418;13.668;2024-01-30T05:57:41;15.77;;;9.70;;
12171;SDS011;6149;52.418;13.668;2024-01-30T06:00:08;17.07;;;9.97;;
12171;SDS011;6149;52.418;13.668;2024-01-30T06:02:34;18.10;;;10.43;;
12171;SDS011;6149;52.418;13.668;2024-01-30T06:05:02;14.70;;;10.10;;
12171;SDS011;6149;52.418;13.668;2024-01-30T06:07:29;17.93;;;10.00;;
12171;SDS011;6149;52.418;13.668;2024-01-30T06:09:56;18.00;;;10.37;;
12171;SDS011;6149;52.418;13.668;2024-01-30T06:12:25;16.20;;;10.00;;
12171;SDS011;6149;52.418;13.668;2024-01-30T06:14:53;16.77;;;9.93;;
12171;SDS011;6149;52.418;13.668;2024-01-30T06:17:21;13.80;;;8.80;;
12171;SDS011;6149;52.418;13.668;2024-01-30T06:19:48;16.27;;;9.73;;
12171;SDS011;6149;52.418;13.668;2024-01-30T06:22:16;17.07;;;9.40;;
12171;SDS011;6149;52.418;13.668;2024-01-30T06:24:43;16.17;;;10.00;;
12171;SDS011;6149;52.418;13.668;2024-01-30T06:27:12;15.03;;;8.83;;
12171;SDS011;6149;52.418;13.668;2024-01-30T06:29:39;16.30;;;9.33;;
12171;SDS011;6149;52.418;13.668;2024-01-30T06:32:06;13.63;;;8.80;;
12171;SDS011;6149;52.418;13.668;2024-01-30T06:34:32;13.13;;;9.03;;
12171;SDS011;6149;52.418;13.668;2024-01-30T06:36:59;14.80;;;9.07;;
12171;SDS011;6149;52.418;13.668;2024-01-30T06:39:27;14.77;;;8.67;;
12171;SDS011;6149;52.418;13.668;2024-01-30T06:41:54;12.00;;;7.77;;
12171;SDS011;6149;52.418;13.668;2024-01-30T06:44:20;15.63;;;8.53;;
12171;SDS011;6149;52.418;13.668;2024-01-30T06:46:47;13.20;;;8.27;;
12171;SDS011;6149;52.418;13.668;2024-01-30T06:49:13;14.20;;;8.60;;
12171;SDS011;6149;52.418;13.668;2024-01-30T06:51:40;14.73;;;8.83;;
12171;SDS011;6149;52.418;13.668;2024-01-30T06:54:06;14.43;;;8.83;;
12171;SDS011;6149;52.418;13.668;2024-01-30T06:56:34;14.77;;;9.63;;
12171;SDS011;6149;52.418;13.668;2024-01-30T06:59:01;13.50;;;8.53;;
12171;SDS011;6149;52.418;13.668;2024-01-30T07:01:28;13.93;;;8.97;;
12171;SDS011;6149;52.418;13.668;2024-01-30T07:03:55;13.30;;;8.90;;
12171;SDS011;6149;52.418;13.668;2024-01-30T07:06:21;15.90;;;9.13;;
12171;SDS011;6149;52.418;13.668;2024-01-30T07:08:48;15.50;;;9.00;;
12171;SDS011;6149;52.418;13.668;2024-01-30T07:11:18;14.93;;;9.03;;
12171;SDS011;6149;52.418;13.668;2024-01-30T07:13:46;15.20;;;10.07;;
12171;SDS011;6149;52.418;13.668;2024-01-30T07:16:13;14.90;;;9.40;;
12171;SDS011;6149;52.418;13.668;2024-01-30T07:18:40;15.57;;;9.17;;
12171;SDS011;6149;52.418;13.668;2024-01-30T07:21:07;13.70;;;8.83;;
12171;SDS011;6149;52.418;13.668;2024-01-30T07:23:34;14.13;;;9.30;;
12171;SDS011;6149;52.418;13.668;2024-01-30T07:26:03;14.83;;;9.63;;
12171;SDS011;6149;52.418;13.668;2024-01-30T07:28:31;18.73;;;9.60;;
12171;SDS011;6149;52.418;13.668;2024-01-30T07:30:59;15.03;;;10.90;;
12171;SDS011;6149;52.418;13.668;2024-01-30T07:33:29;13.43;;;9.90;;
12171;SDS011;6149;52.418;13.668;2024-01-30T07:35:55;14.60;;;9.30;;
12171;SDS011;6149;52.418;13.668;2024-01-30T07:38:22;16.03;;;10.03;;
12171;SDS011;6149;52.418;13.668;2024-01-30T07:40:49;15.50;;;9.70;;
12171;SDS011;6149;52.418;13.668;2024-01-30T07:43:16;17.97;;;10.77;;
12171;SDS011;6149;52.418;13.668;2024-01-30T07:45:42;16.73;;;11.10;;
12171;SDS011;6149;52.418;13.668;2024-01-30T07:48:10;19.20;;;10.87;;
12171;SDS011;6149;52.418;13.668;2024-01-30T07:50:37;17.90;;;10.53;;
12171;SDS011;6149;52.418;13.668;2024-01-30T07:53:03;16.73;;;11.67;;
12171;SDS011;6149;52.418;13.668;2024-01-30T07:55:30;15.80;;;11.47;;
12171;SDS011;6149;52.418;13.668;2024-01-30T07:57:57;17.80;;;11.37;;
12171;SDS011;6149;52.418;13.668;2024-01-30T08:00:25;24.17;;;11.37;;
12171;SDS011;6149;52.418;13.668;2024-01-30T08:02:52;41.47;;;14.90;;
12171;SDS011;6149;52.418;13.668;2024-01-30T08:05:23;23.40;;;12.00;;
12171;SDS011;6149;52.418;13.668;2024-01-30T08:07:49;24.73;;;12.57;;
12171;SDS011;6149;52.418;13.668;2024-01-30T08:10:16;20.37;;;12.77;;
12171;SDS011;6149;52.418;13.668;2024-01-30T08:12:44;19.37;;;12.60;;
12171;SDS011;6149;52.418;13.668;2024-01-30T08:15:11;19.07;;;12.03;;
12171;SDS011;6149;52.418;13.668;2024-01-30T08:17:38;18.37;;;12.00;;
12171;SDS011;6149;52.418;13.668;2024-01-30T08:20:05;21.17;;;12.30;;
12171;SDS011;6149;52.418;13.668;2024-01-30T08:22:34;17.73;;;12.17;;
12171;SDS011;6149;52.418;13.668;2024-01-30T08:25:01;19.03;;;11.73;;
12171;SDS011;6149;52.418;13.668;2024-01-30T08:27:28;19.40;;;11.73;;
12171;SDS011;6149;52.418;13.668;2024-01-30T08:29:54;19.40;;;11.33;;
12171;SDS011;6149;52.418;13.668;2024-01-30T08:32:21;18.77;;;11.50;;
12171;SDS011;6149;52.418;13.668;2024-01-30T08:34:47;20.60;;;11.83;;
12171;SDS011;6149;52.418;13.668;2024-01-30T08:37:14;17.37;;;11.97;;
12171;SDS011;6149;52.418;13.668;2024-01-30T08:39:42;21.23;;;11.57;;
12171;SDS011;6149;52.418;13.668;2024-01-30T08:42:09;15.40;;;10.90;;
12171;SDS011;6149;52.418;13.668;2024-01-30T08:44:36;17.67;;;11.47;;
12171;SDS011;6149;52.418;13.668;2024-01-30T08:47:03;19.70;;;11.17;;
12171;SDS011;6149;52.418;13.668;2024-01-30T08:49:31;14.77;;;10.73;;
12171;SDS011;6149;52.418;13.668;2024-01-30T08:51:57;18.80;;;10.77;;
12171;SDS011;6149;52.418;13.668;2024-01-30T08:54:24;16.23;;;10.03;;
12171;SDS011;6149;52.418;13.668;2024-01-30T08:56:52;14.77;;;9.77;;
12171;SDS011;6149;52.418;13.668;2024-01-30T08:59:18;15.53;;;10.20;;
12171;SDS011;6149;52.418;13.668;2024-01-30T09:01:45;22.03;;;11.03;;
12171;SDS011;6149;52.418;13.668;2024-01-30T09:04:12;14.40;;;10.00;;
12171;SDS011;6149;52.418;13.668;2024-01-30T09:06:39;18.67;;;10.70;;
12171;SDS011;6149;52.418;13.668;2024-01-30T09:09:06;17.47;;;11.33;;
12171;SDS011;6149;52.418;13.668;2024-01-30T09:11:34;15.43;;;10.10;;
12171;SDS011;6149;52.418;13.668;2024-01-30T09:14:02;15.37;;;9.70;;
12171;SDS011;6149;52.418;13.668;2024-01-30T09:16:29;12.97;;;8.87;;
12171;SDS011;6149;52.418;13.668;2024-01-30T09:18:55;14.00;;;9.07;;
12171;SDS011;6149;52.418;13.668;2024-01-30T09:21:22;12.80;;;9.07;;
12171;SDS011;6149;52.418;13.668;2024-01-30T09:23:49;13.87;;;9.17;;
12171;SDS011;6149;52.418;13.668;2024-01-30T09:26:15;14.13;;;9.07;;
12171;SDS011;6149;52.418;13.668;2024-01-30T09:28:42;13.63;;;8.60;;
12171;SDS011;6149;52.418;13.668;2024-01-30T09:31:10;11.97;;;8.87;;
12171;SDS011;6149;52.418;13.668;2024-01-30T09:33:37;12.33;;;8.40;;
12171;SDS011;6149;52.418;13.668;2024-01-30T09:36:05;14.23;;;9.23;;
12171;SDS011;6149;52.418;13.668;2024-01-30T09:38:32;14.10;;;8.63;;
12171;SDS011;6149;52.418;13.668;2024-01-30T09:41:00;13.13;;;8.40;;
12171;SDS011;6149;52.418;13.668;2024-01-30T09:43:35;13.47;;;8.80;;
12171;SDS011;6149;52.418;13.668;2024-01-30T09:46:04;13.20;;;8.90;;
12171;SDS011;6149;52.418;13.668;2024-01-30T09:48:33;10.87;;;9.07;;
12171;SDS011;6149;52.418;13.668;2024-01-30T09:51:00;14.20;;;8.10;;
12171;SDS011;6149;52.418;13.668;2024-01-30T09:53:28;12.57;;;8.23;;
12171;SDS011;6149;52.418;13.668;2024-01-30T09:55:55;13.47;;;8.37;;
12171;SDS011;6149;52.418;13.668;2024-01-30T09:58:22;11.00;;;7.57;;
12171;SDS011;6149;52.418;13.668;2024-01-30T10:00:49;11.90;;;7.87;;
12171;SDS011;6149;52.418;13.668;2024-01-30T10:03:15;10.93;;;8.37;;
12171;SDS011;6149;52.418;13.668;2024-01-30T10:05:45;12.10;;;8.37;;
12171;SDS011;6149;52.418;13.668;2024-01-30T10:08:18;11.63;;;8.33;;
12171;SDS011;6149;52.418;13.668;2024-01-30T10:10:45;14.20;;;8.23;;
12171;SDS011;6149;52.418;13.668;2024-01-30T10:13:12;12.07;;;7.63;;
12171;SDS011;6149;52.418;13.668;2024-01-30T10:15:39;12.13;;;7.70;;
12171;SDS011;6149;52.418;13.668;2024-01-30T10:18:06;13.77;;;8.23;;
12171;SDS011;6149;52.418;13.668;2024-01-30T10:20:32;10.23;;;7.30;;
12171;SDS011;6149;52.418;13.668;2024-01-30T10:23:01;10.17;;;7.37;;
12171;SDS011;6149;52.418;13.668;2024-01-30T10:25:28;10.37;;;7.53;;
12171;SDS011;6149;52.418;13.668;2024-01-30T10:27:56;11.23;;;7.87;;
12171;SDS011;6149;52.418;13.668;2024-01-30T10:30:25;12.27;;;7.70;;
12171;SDS011;6149;52.418;13.668;2024-01-30T10:32:52;10.27;;;7.70;;
12171;SDS011;6149;52.418;13.668;2024-01-30T10:35:19;11.40;;;7.97;;
12171;SDS011;6149;52.418;13.668;2024-01-30T10:37:47;10.47;;;7.40;;
12171;SDS011;6149;52.418;13.668;2024-01-30T10:40:15;15.10;;;7.80;;
12171;SDS011;6149;52.418;13.668;2024-01-30T10:42:42;13.23;;;8.10;;
12171;SDS011;6149;52.418;13.668;2024-01-30T10:45:10;9.30;;;7.83;;
12171;SDS011;6149;52.418;13.668;2024-01-30T10:47:39;11.40;;;7.77;;
12171;SDS011;6149;52.418;13.668;2024-01-30T10:50:09;10.93;;;7.57;;
12171;SDS011;6149;52.418;13.668;2024-01-30T10:52:36;10.70;;;7.30;;
12171;SDS011;6149;52.418;13.668;2024-01-30T10:55:04;11.40;;;7.73;;
12171;SDS011;6149;52.418;13.668;2024-01-30T10:57:34;9.47;;;7.27;;
12171;SDS011;6149;52.418;13.668;2024-01-30T11:00:03;10.97;;;7.53;;
12171;SDS011;6149;52.418;13.668;2024-01-30T11:02:36;9.10;;;6.93;;
12171;SDS011;6149;52.418;13.668;2024-01-30T11:05:04;12.00;;;8.00;;
12171;SDS011;6149;52.418;13.668;2024-01-30T11:07:33;10.93;;;7.23;;
12171;SDS011;6149;52.418;13.668;2024-01-30T11:10:00;9.47;;;7.40;;
12171;SDS011;6149;52.418;13.668;2024-01-30T11:12:29;11.50;;;7.00;;
12171;SDS011;6149;52.418;13.668;2024-01-30T11:15:03;9.77;;;7.20;;
12171;SDS011;6149;52.418;13.668;2024-01-30T11:17:41;10.80;;;6.90;;
12171;SDS011;6149;52.418;13.668;2024-01-30T11:20:16;9.30;;;6.83;;
12171;SDS011;6149;52.418;13.668;2024-01-30T11:22:46;12.27;;;6.40;;
12171;SDS011;6149;52.418;13.668;2024-01-30T11:25:14;9.87;;;6.93;;
12171;SDS011;6149;52.418;13.668;2024-01-30T11:27:42;8.97;;;6.70;;
12171;SDS011;6149;52.418;13.668;2024-01-30T11:30:10;7.50;;;5.93;;
12171;SDS011;6149;52.418;13.668;2024-01-30T11:32:57;10.03;;;6.50;;
12171;SDS011;6149;52.418;13.668;2024-01-30T11:35:29;14.47;;;7.73;;
12171;SDS011;6149;52.418;13.668;2024-01-30T11:37:58;9.93;;;7.37;;
12171;SDS011;6149;52.418;13.668;2024-01-30T11:40:27;8.93;;;6.77;;
12171;SDS011;6149;52.418;13.668;2024-01-30T11:42:54;10.30;;;7.33;;
12171;SDS011;6149;52.418;13.668;2024-01-30T11:45:23;9.30;;;6.93;;
12171;SDS011;6149;52.418;13.668;2024-01-30T11:47:49;8.90;;;7.53;;
12171;SDS011;6149;52.418;13.668;2024-01-30T11:50:16;9.80;;;7.30;;
12171;SDS011;6149;52.418;13.668;2024-01-30T11:52:43;8.93;;;6.60;;
12171;SDS011;6149;52.418;13.668;2024-01-30T11:55:10;12.20;;;8.40;;
12171;SDS011;6149;52.418;13.668;2024-01-30T11:57:37;10.53;;;7.50;;
12171;SDS011;6149;52.418;13.668;2024-01-30T12:00:04;9.43;;;7.07;;
12171;SDS011;6149;52.418;13.668;2024-01-30T12:02:36;10.20;;;7.23;;
12171;SDS011;6149;52.418;13.668;2024-01-30T12:05:04;11.00;;;7.17;;
12171;SDS011;6149;52.418;13.668;2024-01-30T12:07:31;8.20;;;6.90;;
12171;SDS011;6149;52.418;13.668;2024-01-30T12:09:57;12.17;;;7.03;;
12171;SDS011;6149;52.418;13.668;2024-01-30T12:12:24;12.50;;;6.90;;
12171;SDS011;6149;52.418;13.668;2024-01-30T12:14:53;11.57;;;7.23;;
12171;SDS011;6149;52.418;13.668;2024-01-30T12:17:23;10.60;;;7.07;;
12171;SDS011;6149;52.418;13.668;2024-01-30T12:20:03;9.53;;;6.60;;
12171;SDS011;6149;52.418;13.668;2024-01-30T12:22:31;9.87;;;7.07;;
12171;SDS011;6149;52.418;13.668;2024-01-30T12:25:01;10.37;;;6.53;;
12171;SDS011;6149;52.418;13.668;2024-01-30T12:27:29;9.47;;;6.83;;
12171;SDS011;6149;52.418;13.668;2024-01-30T12:29:56;9.87;;;6.73;;
12171;SDS011;6149;52.418;13.668;2024-01-30T12:32:23;9.83;;;6.37;;
12171;SDS011;6149;52.418;13.668;2024-01-30T12:34:49;8.97;;;6.50;;
12171;SDS011;6149;52.418;13.668;2024-01-30T12:37:17;9.67;;;6.47;;
12171;SDS011;6149;52.418;13.668;2024-01-30T12:39:47;7.80;;;6.30;;
12171;SDS011;6149;52.418;13.668;2024-01-30T12:42:14;9.00;;;6.23;;
12171;SDS011;6149;52.418;13.668;2024-01-30T12:44:41;8.73;;;6.60;;
12171;SDS011;6149;52.418;13.668;2024-01-30T12:47:08;8.90;;;5.77;;
12171;SDS011;6149;52.418;13.668;2024-01-30T12:49:35;9.20;;;6.50;;
12171;SDS011;6149;52.418;13.668;2024-01-30T12:52:02;11.27;;;6.03;;
12171;SDS011;6149;52.418;13.668;2024-01-30T12:54:30;8.50;;;5.90;;
12171;SDS011;6149;52.418;13.668;2024-01-30T12:56:57;6.77;;;5.27;;
12171;SDS011;6149;52.418;13.668;2024-01-30T12:59:23;7.40;;;5.77;;
12171;SDS011;6149;52.418;13.668;2024-01-30T13:01:50;9.13;;;6.13;;
12171;SDS011;6149;52.418;13.668;2024-01-30T13:04:16;8.30;;;6.13;;
12171;SDS011;6149;52.418;13.668;2024-01-30T13:06:43;8.00;;;6.17;;
12171;SDS011;6149;52.418;13.668;2024-01-30T13:09:09;9.10;;;5.70;;
12171;SDS011;6149;52.418;13.668;2024-01-30T13:11:37;12.17;;;7.13;;
12171;SDS011;6149;52.418;13.668;2024-01-30T13:14:04;6.73;;;5.20;;
12171;SDS011;6149;52.418;13.668;2024-01-30T13:16:30;10.20;;;6.33;;
12171;SDS011;6149;52.418;13.668;2024-01-30T13:18:57;7.73;;;5.60;;
12171;SDS011;6149;52.418;13.668;2024-01-30T13:21:23;8.60;;;6.00;;
12171;SDS011;6149;52.418;13.668;2024-01-30T13:23:50;7.87;;;6.33;;
12171;SDS011;6149;52.418;13.668;2024-01-30T13:26:19;11.60;;;6.20;;
12171;SDS011;6149;52.418;13.668;2024-01-30T13:28:47;9.00;;;6.13;;
12171;SDS011;6149;52.418;13.668;2024-01-30T13:31:14;9.90;;;6.57;;
12171;SDS011;6149;52.418;13.668;2024-01-30T13:33:41;10.37;;;6.40;;
12171;SDS011;6149;52.418;13.668;2024-01-30T13:36:08;11.10;;;6.80;;
12171;SDS011;6149;52.418;13.668;2024-01-30T13:38:36;12.80;;;8.43;;
12171;SDS011;6149;52.418;13.668;2024-01-30T13:41:04;17.37;;;10.40;;
12171;SDS011;6149;52.418;13.668;2024-01-30T13:43:31;16.13;;;9.27;;
12171;SDS011;6149;52.418;13.668;2024-01-30T13:45:59;20.00;;;13.37;;
12171;SDS011;6149;52.418;13.668;2024-01-30T13:48:25;20.10;;;14.93;;
12171;SDS011;6149;52.418;13.668;2024-01-30T13:50:53;13.07;;;7.40;;
12171;SDS011;6149;52.418;13.668;2024-01-30T13:53:20;11.27;;;6.90;;
12171;SDS011;6149;52.418;13.668;2024-01-30T13:55:47;11.57;;;6.60;;
12171;SDS011;6149;52.418;13.668;2024-01-30T13:58:13;9.27;;;6.67;;
12171;SDS011;6149;52.418;13.668;2024-01-30T14:00:40;9.93;;;6.93;;
12171;SDS011;6149;52.418;13.668;2024-01-30T14:03:08;11.33;;;8.60;;
12171;SDS011;6149;52.418;13.668;2024-01-30T14:05:34;12.90;;;8.37;;
12171;SDS011;6149;52.418;13.668;2024-01-30T14:08:01;12.53;;;7.47;;
12171;SDS011;6149;52.418;13.668;2024-01-30T14:10:30;9.77;;;6.90;;
12171;SDS011;6149;52.418;13.668;2024-01-30T14:12:57;11.83;;;8.83;;
12171;SDS011;6149;52.418;13.668;2024-01-30T14:15:23;7.97;;;6.87;;
12171;SDS011;6149;52.418;13.668;2024-01-30T14:17:50;10.80;;;6.07;;
12171;SDS011;6149;52.418;13.668;2024-01-30T14:20:18;7.97;;;6.13;;
12171;SDS011;6149;52.418;13.668;2024-01-30T14:22:45;11.83;;;6.00;;
12171;SDS011;6149;52.418;13.668;2024-01-30T14:25:11;7.60;;;6.27;;
12171;SDS011;6149;52.418;13.668;2024-01-30T14:27:38;8.40;;;5.67;;
12171;SDS011;6149;52.418;13.668;2024-01-30T14:30:05;8.60;;;5.87;;
12171;SDS011;6149;52.418;13.668;2024-01-30T14:32:36;7.23;;;5.93;;
12171;SDS011;6149;52.418;13.668;2024-01-30T14:35:05;9.73;;;6.77;;
12171;SDS011;6149;52.418;13.668;2024-01-30T14:37:35;8.60;;;6.10;;